Time;durP1;ratioP1;P1;durP2;ratioP2;P2;SDS_P1;SDS_P2;PMS_P1;PMS_P2;Temp;Humidity;BMP_temperature;BMP_pressure;BME280_temperature;BME280_humidity;BME280_pressure;Samples;Min_cycle;Max_cycle;Signal;HPM_P1;HPM_P2
2021/01/17 00:01:15;;;;;;;0.00;0.00;;;20.40;34.90;;;;;;4808361;29;20100;-72
2021/01/17 00:03:42;;;;;;;0.00;0.00;;;20.40;34.90;;;;;;4807373;29;20460;-71
2021/01/17 00:06:07;;;;;;;0.10;0.10;;;20.40;34.90;;;;;;4817809;29;20035;-71
2021/01/17 00:08:33;;;;;;;0.75;0.45;;;20.40;35.00;;;;;;4809907;29;20031;-71
2021/01/17 00:10:59;;;;;;;0.00;0.00;;;20.30;35.00;;;;;;4793368;29;20160;-70
2021/01/17 00:13:25;;;;;;;0.00;0.00;;;20.30;35.00;;;;;;4807342;29;20046;-71
2021/01/17 00:15:50;;;;;;;0.90;0.30;;;20.30;35.10;;;;;;4809066;29;20038;-71
2021/01/17 00:18:16;;;;;;;0.00;0.00;;;20.30;35.10;;;;;;4807324;29;20030;-71
2021/01/17 00:20:41;;;;;;;2.72;0.63;;;20.20;35.10;;;;;;4824287;29;20037;-71
2021/01/17 00:23:07;;;;;;;1.55;0.30;;;20.20;35.10;;;;;;4823552;29;20034;-71
2021/01/17 00:25:33;;;;;;;0.43;0.10;;;20.20;35.10;;;;;;4823441;29;20117;-71
2021/01/17 00:27:59;;;;;;;0.00;0.00;;;20.20;35.20;;;;;;4825724;29;20097;-72
2021/01/17 00:30:26;;;;;;;0.55;0.55;;;20.20;35.20;;;;;;4809939;29;20117;-72
2021/01/17 00:32:53;;;;;;;1.20;0.40;;;20.20;35.20;;;;;;4807448;29;20019;-71
2021/01/17 00:35:20;;;;;;;0.00;0.00;;;20.10;35.20;;;;;;4814485;29;20045;-71
2021/01/17 00:37:46;;;;;;;0.65;0.25;;;20.10;35.20;;;;;;4810843;29;20514;-71
2021/01/17 00:40:12;;;;;;;0.00;0.00;;;20.20;35.20;;;;;;4791905;29;20038;-71
2021/01/17 00:42:44;;;;;;;0.08;0.08;;;20.10;35.30;;;;;;4823853;29;20399;-71
2021/01/17 00:45:11;;;;;;;0.10;0.10;;;20.10;35.20;;;;;;4791627;29;20061;-71
2021/01/17 00:47:37;;;;;;;0.00;0.00;;;20.00;35.30;;;;;;4792913;29;20030;-71
2021/01/17 00:50:03;;;;;;;0.08;0.08;;;20.00;35.40;;;;;;4825213;29;20034;-71
2021/01/17 00:52:29;;;;;;;0.05;0.05;;;20.00;35.30;;;;;;4791647;29;20503;-71
2021/01/17 00:54:54;;;;;;;0.10;0.10;;;20.10;35.40;;;;;;4823088;29;20038;-71
2021/01/17 00:57:20;;;;;;;0.47;0.28;;;20.00;35.40;;;;;;4836344;29;20473;-71
2021/01/17 00:59:45;;;;;;;0.00;0.00;;;20.00;35.40;;;;;;4827414;29;20063;-71
2021/01/17 01:02:11;;;;;;;0.13;0.13;;;20.00;35.40;;;;;;4823411;29;20035;-71
2021/01/17 01:04:37;;;;;;;0.15;0.15;;;20.00;35.40;;;;;;4796873;29;20500;-71
2021/01/17 01:07:02;;;;;;;0.10;0.08;;;20.00;35.40;;;;;;4806987;29;20081;-72
2021/01/17 01:09:28;;;;;;;0.10;0.10;;;20.00;35.40;;;;;;4806233;29;20034;-72
2021/01/17 01:11:53;;;;;;;0.70;0.32;;;19.90;35.40;;;;;;4806594;29;20301;-71
2021/01/17 01:14:19;;;;;;;0.10;0.10;;;19.90;35.40;;;;;;4823261;29;20038;-71
2021/01/17 01:17:03;;;;;;;0.08;0.08;;;19.90;35.40;;;;;;4823242;29;20399;-71
2021/01/17 01:19:28;;;;;;;0.40;0.28;;;19.90;35.40;;;;;;4822183;29;20031;-70
2021/01/17 01:21:54;;;;;;;0.00;0.00;;;19.90;35.50;;;;;;4806938;29;20122;-70
2021/01/17 01:24:19;;;;;;;0.10;0.10;;;19.90;35.50;;;;;;4806758;29;20034;-71
2021/01/17 01:26:45;;;;;;;0.20;0.20;;;19.90;35.50;;;;;;4826253;29;20030;-71
2021/01/17 01:29:14;;;;;;;0.22;0.22;;;19.90;35.50;;;;;;4812599;29;20475;-71
2021/01/17 01:31:40;;;;;;;0.35;0.20;;;19.90;35.50;;;;;;4796639;29;20079;-71
2021/01/17 01:34:06;;;;;;;0.00;0.00;;;19.90;35.40;;;;;;4808910;29;20526;-71
2021/01/17 01:36:36;;;;;;;0.10;0.10;;;19.90;35.50;;;;;;4818648;29;20031;-72
2021/01/17 01:39:02;;;;;;;0.00;0.00;;;19.90;35.50;;;;;;4806368;29;20046;-72
2021/01/17 01:41:32;;;;;;;0.40;0.40;;;19.90;35.50;;;;;;4829039;29;20060;-71
2021/01/17 01:43:58;;;;;;;0.00;0.00;;;19.90;35.50;;;;;;4809732;29;20042;-71
2021/01/17 01:46:25;;;;;;;0.03;0.03;;;19.90;35.50;;;;;;4815104;29;20031;-71
2021/01/17 01:48:51;;;;;;;0.15;0.13;;;19.80;35.50;;;;;;4809967;29;20629;-71
2021/01/17 01:54:38;;;;;;;0.00;0.00;;;19.80;35.50;;;;;;4831097;29;20139;-71
2021/01/17 01:57:07;;;;;;;0.15;0.15;;;19.80;35.60;;;;;;4810045;29;20555;-71
2021/01/17 01:59:32;;;;;;;0.00;0.00;;;19.80;35.60;;;;;;4809711;29;20038;-71
2021/01/17 02:01:58;;;;;;;0.00;0.00;;;19.80;35.70;;;;;;4809759;29;20041;-71
2021/01/17 02:04:23;;;;;;;0.10;0.10;;;19.80;35.60;;;;;;4825887;29;20089;-71
2021/01/17 02:07:33;;;;;;;0.10;0.10;;;19.80;35.60;;;;;;4810320;29;20062;-71
2021/01/17 02:09:59;;;;;;;0.32;0.32;;;19.80;35.60;;;;;;4805547;29;20045;-70
2021/01/17 02:12:33;;;;;;;0.17;0.17;;;19.80;35.60;;;;;;4805807;29;20050;-70
2021/01/17 02:15:26;;;;;;;0.10;0.10;;;19.70;35.60;;;;;;4798022;29;20045;-70
2021/01/17 02:17:52;;;;;;;0.43;0.20;;;19.70;35.70;;;;;;4795555;29;20075;-70
2021/01/17 02:20:27;;;;;;;0.00;0.00;;;19.70;35.70;;;;;;4814309;29;20045;-70
2021/01/17 02:23:02;;;;;;;0.00;0.00;;;19.70;35.80;;;;;;4793252;29;20038;-70
2021/01/17 02:25:37;;;;;;;4.40;0.20;;;19.70;35.80;;;;;;4826306;29;20131;-71
2021/01/17 02:28:04;;;;;;;;;;;19.70;35.80;;;;;;4809804;29;20468;-70
2021/01/17 02:30:31;;;;;;;0.00;0.00;;;19.70;35.70;;;;;;4808659;29;19913;-71
2021/01/17 02:33:23;;;;;;;0.20;0.20;;;19.60;35.70;;;;;;4795289;29;20077;-70
2021/01/17 02:35:51;;;;;;;0.00;0.00;;;19.60;35.80;;;;;;4802235;29;20051;-70
2021/01/17 02:38:42;;;;;;;0.10;0.10;;;19.60;35.80;;;;;;4780927;29;20130;-71
2021/01/17 02:41:16;;;;;;;0.00;0.00;;;19.60;35.80;;;;;;4808475;29;20071;-70
2021/01/17 02:43:42;;;;;;;0.00;0.00;;;19.60;35.80;;;;;;4809785;29;20117;-70
2021/01/17 02:46:08;;;;;;;5.90;1.25;;;19.60;35.80;;;;;;4793600;29;20026;-70
2021/01/17 02:48:34;;;;;;;0.38;0.13;;;19.60;35.80;;;;;;4825153;29;20286;-70
2021/01/17 02:51:00;;;;;;;0.03;0.03;;;19.60;35.90;;;;;;4824868;29;20400;-70
2021/01/17 02:53:32;;;;;;;0.10;0.10;;;19.50;35.80;;;;;;4811517;29;20051;-70
2021/01/17 02:55:59;;;;;;;0.17;0.17;;;19.50;35.80;;;;;;4806675;29;20034;-70
2021/01/17 02:58:24;;;;;;;0.03;0.03;;;19.50;35.80;;;;;;4829167;29;20034;-70
2021/01/17 03:00:51;;;;;;;0.00;0.00;;;19.50;35.90;;;;;;4799264;29;20041;-70
2021/01/17 03:03:17;;;;;;;0.00;0.00;;;19.50;35.90;;;;;;4784231;29;20030;-70
2021/01/17 03:05:42;;;;;;;0.00;0.00;;;19.50;35.80;;;;;;4797056;29;20022;-70
2021/01/17 03:08:08;;;;;;;0.10;0.10;;;19.50;35.80;;;;;;4799203;29;20041;-70
2021/01/17 03:10:34;;;;;;;1.65;0.30;;;19.50;35.80;;;;;;4808505;29;20600;-70
2021/01/17 03:13:00;;;;;;;0.00;0.00;;;19.60;35.80;;;;;;4808650;29;20043;-70
2021/01/17 03:15:38;;;;;;;0.38;0.38;;;19.50;35.80;;;;;;4818353;29;20427;-70
2021/01/17 03:18:04;;;;;;;0.22;0.20;;;19.50;35.80;;;;;;4816412;29;20034;-70
2021/01/17 03:20:29;;;;;;;0.00;0.00;;;19.50;35.70;;;;;;4822534;29;20054;-70
2021/01/17 03:22:55;;;;;;;4.57;1.27;;;19.50;35.70;;;;;;4824977;29;20482;-70
2021/01/17 03:25:20;;;;;;;0.38;0.35;;;19.50;35.80;;;;;;4820667;29;20025;-70
2021/01/17 03:27:46;;;;;;;0.00;0.00;;;19.50;35.80;;;;;;4842255;29;20036;-77
2021/01/17 03:30:12;;;;;;;0.00;0.00;;;19.50;35.80;;;;;;4831342;29;20034;-77
2021/01/17 03:32:37;;;;;;;0.32;0.20;;;19.50;35.80;;;;;;4831999;29;20049;-77
2021/01/17 03:35:03;;;;;;;0.00;0.00;;;19.50;35.80;;;;;;4832360;29;20562;-76
2021/01/17 03:37:29;;;;;;;0.08;0.08;;;19.50;35.80;;;;;;4824129;29;20030;-76
2021/01/17 03:39:55;;;;;;;0.10;0.10;;;19.50;35.80;;;;;;4819705;29;20029;-77
2021/01/17 03:42:20;;;;;;;0.00;0.00;;;19.50;35.80;;;;;;4816049;29;20037;-77
2021/01/17 03:44:48;;;;;;;3.10;1.10;;;19.50;35.80;;;;;;4818429;29;20448;-76
2021/01/17 03:47:14;;;;;;;0.10;0.10;;;19.50;35.90;;;;;;4819384;29;20041;-75
2021/01/17 03:49:40;;;;;;;0.00;0.00;;;19.50;35.90;;;;;;4823429;29;20045;-80
2021/01/17 03:52:05;;;;;;;0.00;0.00;;;19.50;35.90;;;;;;4812948;29;20034;-79
2021/01/17 03:54:31;;;;;;;0.00;0.00;;;19.40;35.90;;;;;;4790675;29;20031;-78
2021/01/17 03:56:56;;;;;;;0.20;0.13;;;19.40;35.90;;;;;;4841829;29;20387;-79
2021/01/17 03:59:22;;;;;;;0.75;0.75;;;19.40;36.00;;;;;;4831054;29;20027;-79
2021/01/17 04:01:47;;;;;;;0.10;0.10;;;19.40;36.00;;;;;;4818208;29;20410;-79
2021/01/17 04:04:13;;;;;;;0.20;0.20;;;19.40;35.90;;;;;;4825888;29;20042;-78
2021/01/17 04:06:39;;;;;;;0.90;0.45;;;19.40;36.00;;;;;;4834506;29;20038;-79
2021/01/17 04:09:05;;;;;;;0.03;0.03;;;19.40;36.00;;;;;;4832069;29;20038;-79
2021/01/17 04:11:31;;;;;;;0.65;0.22;;;19.40;36.00;;;;;;4809540;29;20135;-78
2021/01/17 04:13:56;;;;;;;0.00;0.00;;;19.40;36.00;;;;;;4831585;29;20033;-78
2021/01/17 04:16:22;;;;;;;0.10;0.10;;;19.40;36.00;;;;;;4831808;29;20034;-77
2021/01/17 04:18:47;;;;;;;0.28;0.10;;;19.40;36.00;;;;;;4822312;29;20030;-77
2021/01/17 04:21:13;;;;;;;0.20;0.20;;;19.30;36.00;;;;;;4835222;29;20066;-78
2021/01/17 04:23:39;;;;;;;0.10;0.10;;;19.30;36.10;;;;;;4838789;29;20083;-77
2021/01/17 04:26:04;;;;;;;0.10;0.10;;;19.30;36.00;;;;;;4821501;29;20056;-76
2021/01/17 04:28:30;;;;;;;0.65;0.03;;;19.30;36.00;;;;;;4838706;29;20037;-76
2021/01/17 04:30:55;;;;;;;0.10;0.10;;;19.30;36.00;;;;;;4816905;29;20422;-78
2021/01/17 04:33:21;;;;;;;0.08;0.08;;;19.30;36.00;;;;;;4835456;29;20041;-79
2021/01/17 04:35:47;;;;;;;0.10;0.10;;;19.30;36.10;;;;;;4801425;29;20034;-78
2021/01/17 04:38:13;;;;;;;0.10;0.10;;;19.30;36.00;;;;;;4808836;29;20495;-77
2021/01/17 04:40:38;;;;;;;0.25;0.25;;;19.30;36.00;;;;;;4821103;29;20084;-79
2021/01/17 04:43:35;;;;;;;0.30;0.28;;;19.30;36.00;;;;;;4809900;29;20080;-79
2021/01/17 04:46:01;;;;;;;0.00;0.00;;;19.30;36.00;;;;;;4814997;29;20117;-79
2021/01/17 04:48:27;;;;;;;0.20;0.20;;;19.30;36.00;;;;;;4810883;29;20427;-79
2021/01/17 04:51:00;;;;;;;0.10;0.10;;;19.30;36.00;;;;;;4820384;29;20050;-80
2021/01/17 04:53:27;;;;;;;0.10;0.10;;;19.30;36.00;;;;;;4838479;29;20033;-80
2021/01/17 04:55:53;;;;;;;0.08;0.08;;;19.40;36.10;;;;;;4790482;29;20125;-80
2021/01/17 04:58:19;;;;;;;0.00;0.00;;;19.30;36.00;;;;;;4792044;29;20149;-79
2021/01/17 05:01:03;;;;;;;0.10;0.10;;;19.30;36.00;;;;;;4806064;29;20494;-80
2021/01/17 05:04:14;;;;;;;0.00;0.00;;;19.30;36.00;;;;;;4804453;29;20105;-80
2021/01/17 05:06:40;;;;;;;0.30;0.30;;;19.30;36.00;;;;;;4805901;29;20038;-79
2021/01/17 05:09:06;;;;;;;2.75;0.73;;;19.30;36.20;;;;;;4816954;29;20046;-77
2021/01/17 05:11:34;;;;;;;0.55;0.40;;;19.30;36.20;;;;;;4819278;29;20057;-77
2021/01/17 05:14:33;;;;;;;1.65;0.43;;;19.30;36.30;;;;;;4819934;29;20038;-78
2021/01/17 05:16:59;;;;;;;0.10;0.00;;;19.30;36.30;;;;;;4800900;29;20022;-78
2021/01/17 05:19:24;;;;;;;0.00;0.00;;;19.30;36.40;;;;;;4841142;29;20525;-77
2021/01/17 05:21:50;;;;;;;0.00;0.00;;;19.30;36.50;;;;;;4820488;29;20036;-79
2021/01/17 05:24:17;;;;;;;1.20;0.60;;;19.30;36.50;;;;;;4821551;29;20030;-76
2021/01/17 05:26:53;;;;;;;1.20;0.15;;;19.20;36.50;;;;;;4818963;29;20053;-77
2021/01/17 05:29:20;;;;;;;0.70;0.20;;;19.20;36.60;;;;;;4807292;29;20042;-78
2021/01/17 05:31:48;;;;;;;0.00;0.00;;;19.20;36.60;;;;;;4804034;29;20042;-79
2021/01/17 05:34:13;;;;;;;0.10;0.10;;;19.20;36.70;;;;;;4827200;29;20033;-79
2021/01/17 05:36:39;;;;;;;0.15;0.15;;;19.20;36.70;;;;;;4811693;29;20451;-78
2021/01/17 05:39:05;;;;;;;0.35;0.28;;;19.20;36.80;;;;;;4835487;29;20034;-79
2021/01/17 05:41:31;;;;;;;0.00;0.00;;;19.20;36.80;;;;;;4838043;29;20023;-79
2021/01/17 05:43:56;;;;;;;0.13;0.10;;;19.20;36.90;;;;;;4841134;29;20095;-78
2021/01/17 05:46:22;;;;;;;0.47;0.47;;;19.20;36.90;;;;;;4836362;29;20030;-79
2021/01/17 05:48:48;;;;;;;0.60;0.45;;;19.20;37.00;;;;;;4823129;29;20025;-76
2021/01/17 05:51:26;;;;;;;0.38;0.28;;;19.20;37.00;;;;;;4841074;29;20034;-76
2021/01/17 05:53:53;;;;;;;0.10;0.10;;;19.20;37.00;;;;;;4840865;29;20038;-78
2021/01/17 05:56:19;;;;;;;0.00;0.00;;;19.20;37.00;;;;;;4823846;29;20053;-78
2021/01/17 05:58:44;;;;;;;0.20;0.20;;;19.20;37.10;;;;;;4827449;29;20034;-78
2021/01/17 06:01:19;;;;;;;0.00;0.00;;;19.20;37.10;;;;;;4811884;29;20057;-77
2021/01/17 06:03:55;;;;;;;0.00;0.00;;;19.20;37.10;;;;;;4808996;29;20407;-78
2021/01/17 06:06:27;;;;;;;0.10;0.10;;;19.20;37.10;;;;;;4811029;29;20117;-79
2021/01/17 06:08:54;;;;;;;0.10;0.10;;;19.20;37.20;;;;;;4817169;29;20128;-76
2021/01/17 06:11:20;;;;;;;0.00;0.00;;;19.20;37.10;;;;;;4807264;29;20495;-75
2021/01/17 06:13:52;;;;;;;0.65;0.38;;;19.20;37.20;;;;;;4804721;29;20091;-76
2021/01/17 06:16:24;;;;;;;1.17;0.30;;;19.20;37.10;;;;;;4804544;29;20034;-78
2021/01/17 06:18:54;;;;;;;0.00;0.00;;;19.20;37.80;;;;;;4823366;29;20045;-76
2021/01/17 06:21:20;;;;;;;0.08;0.08;;;19.20;37.10;;;;;;4835404;29;20038;-76
2021/01/17 06:23:55;;;;;;;0.00;0.00;;;19.20;37.80;;;;;;4836992;29;20034;-76
2021/01/17 06:26:25;;;;;;;0.00;0.00;;;19.20;37.20;;;;;;4825730;29;20030;-76
2021/01/17 06:28:51;;;;;;;0.20;0.20;;;19.20;37.20;;;;;;4825252;29;20034;-76
2021/01/17 06:31:21;;;;;;;0.08;0.08;;;19.20;37.20;;;;;;4833452;29;20388;-76
2021/01/17 06:33:48;;;;;;;0.03;0.03;;;19.20;37.30;;;;;;4833096;29;20030;-76
2021/01/17 06:36:16;;;;;;;0.20;0.20;;;19.20;37.30;;;;;;4801690;29;20061;-76
2021/01/17 06:38:43;;;;;;;0.52;0.28;;;19.20;37.20;;;;;;4834093;29;20049;-76
2021/01/17 06:41:09;;;;;;;0.08;0.08;;;19.30;37.20;;;;;;4797066;29;20174;-70
2021/01/17 06:43:41;;;;;;;0.10;0.10;;;19.40;37.20;;;;;;4820827;29;20125;-70
2021/01/17 06:46:07;;;;;;;0.32;0.20;;;19.40;37.10;;;;;;4815816;29;20029;-70
2021/01/17 06:48:33;;;;;;;0.10;0.10;;;19.50;37.60;;;;;;4818917;29;20034;-70
2021/01/17 06:51:20;;;;;;;0.80;0.43;;;19.50;36.90;;;;;;4841377;29;20425;-70
2021/01/17 06:53:56;;;;;;;0.22;0.22;;;19.60;36.90;;;;;;4824906;29;20046;-70
2021/01/17 06:56:22;;;;;;;0.00;0.00;;;19.60;36.80;;;;;;4816527;29;20415;-70
2021/01/17 06:58:50;;;;;;;0.35;0.20;;;19.70;36.80;;;;;;4800559;29;20034;-70
2021/01/17 07:01:15;;;;;;;0.00;0.00;;;19.70;36.60;;;;;;4819272;29;20085;-71
2021/01/17 07:03:53;;;;;;;8.02;0.45;;;19.80;36.70;;;;;;4823526;29;20042;-71
2021/01/17 07:06:43;;;;;;;0.00;0.00;;;19.80;36.50;;;;;;4822728;29;20032;-71
2021/01/17 07:09:09;;;;;;;0.22;0.22;;;19.80;36.50;;;;;;4834353;29;20049;-70
2021/01/17 07:11:53;;;;;;;0.20;0.20;;;19.90;36.50;;;;;;4804649;29;20059;-70
2021/01/17 07:14:18;;;;;;;0.20;0.13;;;19.90;36.50;;;;;;4814445;29;20026;-70
2021/01/17 07:16:46;;;;;;;0.43;0.10;;;19.90;36.40;;;;;;4808788;29;20475;-70
2021/01/17 07:19:12;;;;;;;0.00;0.00;;;19.90;36.40;;;;;;4824598;29;20515;-71
2021/01/17 07:21:39;;;;;;;0.63;0.40;;;20.00;37.10;;;;;;4804259;29;20087;-70
2021/01/17 07:24:06;;;;;;;0.20;0.20;;;20.00;36.40;;;;;;4833378;29;20026;-70
2021/01/17 07:27:07;;;;;;;0.10;0.10;;;20.00;36.40;;;;;;4794917;29;20456;-70
2021/01/17 07:29:34;;;;;;;0.10;0.10;;;20.00;36.40;;;;;;4753690;30;20130;-70
2021/01/17 07:31:59;;;;;;;0.32;0.32;;;20.00;36.40;;;;;;4771491;30;20050;-70
2021/01/17 07:34:25;;;;;;;0.90;0.30;;;20.00;36.40;;;;;;4768915;30;20508;-70
2021/01/17 07:36:50;;;;;;;0.00;0.00;;;20.00;36.40;;;;;;4769532;30;20101;-70
2021/01/17 07:39:17;;;;;;;0.10;0.10;;;20.00;36.40;;;;;;4755373;30;20622;-70
2021/01/17 07:41:46;;;;;;;0.77;0.77;;;20.00;36.40;;;;;;4771160;29;20042;-70
2021/01/17 07:44:15;;;;;;;0.03;0.03;;;20.00;36.40;;;;;;4769480;29;20093;-71
2021/01/17 07:46:41;;;;;;;0.00;0.00;;;20.00;36.40;;;;;;4769461;30;20096;-71
2021/01/17 07:49:06;;;;;;;1.00;0.57;;;20.00;36.40;;;;;;4769420;30;20528;-70
2021/01/17 07:51:32;;;;;;;0.00;0.00;;;20.00;36.50;;;;;;4763434;30;20039;-71
2021/01/17 07:54:04;;;;;;;0.20;0.20;;;20.00;36.50;;;;;;4771433;30;20093;-71
2021/01/17 07:56:37;;;;;;;2.40;1.02;;;20.00;36.50;;;;;;4770136;29;20031;-71
2021/01/17 07:59:08;;;;;;;2.38;0.63;;;20.00;36.60;;;;;;4771485;30;20127;-71
2021/01/17 08:01:34;;;;;;;0.40;0.17;;;20.00;36.60;;;;;;4769802;30;21667;-71
2021/01/17 08:04:05;;;;;;;0.13;0.10;;;20.10;36.70;;;;;;4783330;29;20035;-71
2021/01/17 08:06:36;;;;;;;1.02;0.52;;;20.10;36.70;;;;;;4830395;29;20049;-71
2021/01/17 08:09:09;;;;;;;0.55;0.10;;;20.10;36.70;;;;;;4833856;29;20069;-71
2021/01/17 08:11:51;;;;;;;0.28;0.20;;;20.10;36.70;;;;;;4839925;29;20068;-71
2021/01/17 08:14:32;;;;;;;1.98;0.60;;;20.10;36.60;;;;;;4821365;29;20030;-71
2021/01/17 08:17:04;;;;;;;0.90;0.20;;;20.20;36.60;;;;;;4839651;29;20049;-71
2021/01/17 08:19:34;;;;;;;0.00;0.00;;;20.20;36.50;;;;;;4837737;29;20057;-71
2021/01/17 08:22:38;;;;;;;0.95;0.35;;;20.30;36.50;;;;;;4835487;29;20488;-71
2021/01/17 08:25:05;;;;;;;0.00;0.00;;;20.30;36.40;;;;;;4825426;29;20041;-71
2021/01/17 08:27:31;;;;;;;0.00;0.00;;;20.20;36.40;;;;;;4803602;29;20415;-71
2021/01/17 08:30:00;;;;;;;0.10;0.10;;;20.20;36.40;;;;;;4801898;29;20527;-72
2021/01/17 08:32:38;;;;;;;0.47;0.28;;;20.20;36.40;;;;;;4829879;29;20415;-71
2021/01/17 08:37:51;;;;;;;0.20;0.10;;;20.20;36.50;;;;;;4832913;29;20136;-71
2021/01/17 08:40:57;;;;;;;0.10;0.10;;;20.20;36.50;;;;;;4817335;29;20108;-71
2021/01/17 08:43:33;;;;;;;0.00;0.00;;;20.20;36.60;;;;;;4836421;29;20079;-70
2021/01/17 08:45:58;;;;;;;2.08;0.50;;;20.20;36.60;;;;;;4812648;29;20030;-71
2021/01/17 08:48:25;;;;;;;0.15;0.15;;;20.20;36.70;;;;;;4832321;29;20052;-71
2021/01/17 08:50:55;;;;;;;0.00;0.00;;;20.10;36.60;;;;;;4827975;29;20071;-71
2021/01/17 08:53:30;;;;;;;0.50;0.50;;;20.10;36.70;;;;;;4801675;29;20112;-71
2021/01/17 08:55:58;;;;;;;0.10;0.10;;;20.10;36.80;;;;;;4815337;29;20085;-71
2021/01/17 08:58:24;;;;;;;0.52;0.13;;;20.10;36.80;;;;;;4801515;29;20461;-71
2021/01/17 09:00:52;;;;;;;0.17;0.17;;;20.10;36.80;;;;;;4839326;29;20026;-71
2021/01/17 09:03:37;;;;;;;0.75;0.47;;;20.10;36.80;;;;;;4830432;29;20083;-72
2021/01/17 09:06:24;;;;;;;0.20;0.10;;;20.10;36.90;;;;;;4820426;29;20026;-71
2021/01/17 09:08:49;;;;;;;0.20;0.20;;;20.10;36.90;;;;;;4838819;29;20050;-72
2021/01/17 09:11:27;;;;;;;0.30;0.17;;;20.10;36.90;;;;;;4830185;29;20124;-71
2021/01/17 09:14:15;;;;;;;0.00;0.00;;;20.20;37.00;;;;;;4840020;29;20111;-72
2021/01/17 09:16:53;;;;;;;0.15;0.15;;;20.10;36.90;;;;;;4830596;29;20109;-71
2021/01/17 09:19:20;;;;;;;0.57;0.30;;;20.20;36.90;;;;;;4825353;29;20508;-72
2021/01/17 09:21:48;;;;;;;3.05;0.63;;;20.10;37.00;;;;;;4827205;29;20022;-71
2021/01/17 09:24:18;;;;;;;0.10;0.10;;;20.20;37.10;;;;;;4821246;29;20030;-71
2021/01/17 09:26:52;;;;;;;0.00;0.00;;;20.20;37.10;;;;;;4798517;29;20037;-72
2021/01/17 09:29:33;;;;;;;0.30;0.30;;;20.20;37.00;;;;;;4802245;29;20054;-71
2021/01/17 09:32:03;;;;;;;1.13;0.13;;;20.20;37.00;;;;;;4793814;29;20121;-73
2021/01/17 09:34:42;;;;;;;0.00;0.00;;;20.20;36.90;;;;;;4824804;29;20038;-70
2021/01/17 09:37:12;;;;;;;0.05;0.03;;;20.30;36.90;;;;;;4809739;29;20041;-70
2021/01/17 09:39:40;;;;;;;0.10;0.10;;;20.30;36.90;;;;;;4800364;29;20027;-72
2021/01/17 09:42:07;;;;;;;0.20;0.20;;;20.30;37.00;;;;;;4807588;29;20113;-70
2021/01/17 09:44:33;;;;;;;0.10;0.10;;;20.20;36.90;;;;;;4808243;29;20033;-72
2021/01/17 09:46:59;;;;;;;0.00;0.00;;;20.20;37.00;;;;;;4809164;29;20041;-70
2021/01/17 09:49:26;;;;;;;0.00;0.00;;;20.30;37.10;;;;;;4824603;29;20406;-72
2021/01/17 09:51:52;;;;;;;1.55;0.57;;;20.20;37.10;;;;;;4808093;29;20774;-69
2021/01/17 09:54:18;;;;;;;0.30;0.30;;;20.20;37.10;;;;;;4831521;29;20026;-71
2021/01/17 09:56:43;;;;;;;0.45;0.38;;;20.20;37.10;;;;;;4825879;29;20105;-72
2021/01/17 09:59:22;;;;;;;0.50;0.20;;;20.20;37.10;;;;;;4809948;29;20610;-77
2021/01/17 10:01:48;;;;;;;0.00;0.00;;;20.20;37.20;;;;;;4795004;29;20049;-75
2021/01/17 10:04:21;;;;;;;0.00;0.00;;;20.20;37.20;;;;;;4828824;29;20054;-75
2021/01/17 10:06:48;;;;;;;0.00;0.00;;;20.20;37.20;;;;;;4828051;29;20170;-77
2021/01/17 10:09:17;;;;;;;0.40;0.40;;;20.20;37.30;;;;;;4809634;29;20113;-76
2021/01/17 10:11:43;;;;;;;1.95;0.25;;;20.20;37.40;;;;;;4796258;29;20050;-74
2021/01/17 10:14:10;;;;;;;0.28;0.10;;;20.20;37.30;;;;;;4808582;29;20099;-74
2021/01/17 10:16:36;;;;;;;18.73;0.57;;;20.20;37.30;;;;;;4794978;29;20113;-76
2021/01/17 10:19:06;;;;;;;0.08;0.03;;;20.30;37.30;;;;;;4822880;29;20125;-75
2021/01/17 10:21:37;;;;;;;0.20;0.10;;;20.20;37.20;;;;;;4816137;29;20030;-74
2021/01/17 10:24:03;;;;;;;0.17;0.17;;;20.30;37.30;;;;;;4791815;29;20126;-75
2021/01/17 10:26:29;;;;;;;0.00;0.00;;;20.30;37.40;;;;;;4823151;29;20225;-79
2021/01/17 10:28:55;;;;;;;0.77;0.60;;;20.30;37.40;;;;;;4809033;29;20116;-75
2021/01/17 10:31:23;;;;;;;0.30;0.22;;;20.30;37.40;;;;;;4812534;29;20038;-75
2021/01/17 10:33:49;;;;;;;0.88;0.40;;;20.40;37.50;;;;;;4793353;29;20129;-75
2021/01/17 10:36:16;;;;;;;0.00;0.00;;;20.40;37.50;;;;;;4833552;29;20054;-75
2021/01/17 10:38:42;;;;;;;0.05;0.05;;;20.40;37.60;;;;;;4804979;29;20039;-75
2021/01/17 10:41:07;;;;;;;0.00;0.00;;;20.40;37.60;;;;;;4816650;29;20041;-75
2021/01/17 10:43:34;;;;;;;0.20;0.10;;;20.40;37.80;;;;;;4792756;29;20414;-75
2021/01/17 10:46:02;;;;;;;0.20;0.20;;;20.40;37.90;;;;;;4808016;29;20068;-74
2021/01/17 10:48:27;;;;;;;0.20;0.15;;;20.40;38.10;;;;;;4808310;29;20594;-75
2021/01/17 10:50:54;;;;;;;0.00;0.00;;;20.40;38.20;;;;;;4792318;29;20035;-75
2021/01/17 10:53:38;;;;;;;0.15;0.15;;;20.40;38.20;;;;;;4794838;29;20030;-77
2021/01/17 10:56:03;;;;;;;0.95;0.85;;;20.30;38.30;;;;;;4823882;29;20065;-76
2021/01/17 10:59:16;;;;;;;2.25;0.88;;;20.30;38.40;;;;;;4812043;29;20062;-76
2021/01/17 11:02:22;;;;;;;0.03;0.03;;;20.30;38.70;;;;;;4824989;29;20083;-73
2021/01/17 11:04:48;;;;;;;0.00;0.00;;;20.40;38.90;;;;;;4815200;29;20042;-71
2021/01/17 11:07:14;;;;;;;0.03;0.03;;;20.40;38.80;;;;;;4829313;29;20026;-71
2021/01/17 11:09:39;;;;;;;0.22;0.22;;;20.40;38.80;;;;;;4793336;29;20038;-71
2021/01/17 11:12:05;;;;;;;0.70;0.70;;;20.40;38.90;;;;;;4821115;29;20054;-77
2021/01/17 11:14:31;;;;;;;0.10;0.10;;;20.40;38.80;;;;;;4819231;29;20050;-82
2021/01/17 11:16:57;;;;;;;0.80;0.30;;;20.40;38.80;;;;;;4793999;29;20031;-81
2021/01/17 11:19:36;;;;;;;0.22;0.22;;;20.40;38.80;;;;;;4821811;29;20038;-81
2021/01/17 11:22:01;;;;;;;1.15;0.20;;;20.40;38.90;;;;;;4819752;29;20034;-79
2021/01/17 11:24:34;;;;;;;0.10;0.10;;;20.40;39.10;;;;;;4807486;29;20159;-77
2021/01/17 11:27:13;;;;;;;0.35;0.35;;;20.40;39.20;;;;;;4805876;29;20038;-79
2021/01/17 11:29:48;;;;;;;3.00;0.32;;;20.50;39.40;;;;;;4793416;29;20082;-78
2021/01/17 11:32:14;;;;;;;0.10;0.10;;;20.40;39.30;;;;;;4805032;29;20141;-79
2021/01/17 11:34:41;;;;;;;3.13;0.70;;;20.50;39.50;;;;;;4805310;29;20042;-79
2021/01/17 11:37:06;;;;;;;0.20;0.20;;;20.50;39.70;;;;;;4776092;29;20038;-79
2021/01/17 11:39:32;;;;;;;0.43;0.43;;;20.40;39.60;;;;;;4808364;29;20053;-82
2021/01/17 11:41:58;;;;;;;3.10;1.40;;;20.40;39.60;;;;;;4810035;29;20113;-78
2021/01/17 11:44:32;;;;;;;0.25;0.20;;;20.40;39.70;;;;;;4822275;29;20034;-78
2021/01/17 11:47:00;;;;;;;0.73;0.50;;;20.40;40.00;;;;;;4808468;29;20022;-78
2021/01/17 11:49:26;;;;;;;1.27;0.82;;;20.40;40.20;;;;;;4810851;29;20044;-78
2021/01/17 11:51:52;;;;;;;0.40;0.40;;;20.50;40.30;;;;;;4802750;29;20046;-78
2021/01/17 11:54:26;;;;;;;0.57;0.20;;;20.50;40.10;;;;;;4840403;29;20034;-78
2021/01/17 11:57:02;;;;;;;1.60;0.98;;;20.50;40.10;;;;;;4793916;29;20030;-78
2021/01/17 11:59:28;;;;;;;0.10;0.10;;;20.60;39.90;;;;;;4823275;29;20030;-78
2021/01/17 12:01:54;;;;;;;2.33;0.95;;;20.60;39.80;;;;;;4797504;29;20054;-78
2021/01/17 12:04:26;;;;;;;1.77;1.08;;;20.60;39.90;;;;;;4807983;29;20046;-77
2021/01/17 12:07:21;;;;;;;3.03;1.13;;;20.60;39.80;;;;;;4821020;29;20043;-79
2021/01/17 12:09:47;;;;;;;0.68;0.68;;;20.70;40.40;;;;;;4736133;30;20067;-79
2021/01/17 12:12:14;;;;;;;3.00;0.63;;;20.70;39.60;;;;;;4738186;30;20056;-79
2021/01/17 12:14:40;;;;;;;1.35;0.80;;;20.80;39.50;;;;;;4727906;30;20060;-80
2021/01/17 12:17:06;;;;;;;0.15;0.15;;;20.80;39.70;;;;;;4720814;30;20045;-79
2021/01/17 12:19:32;;;;;;;2.35;1.00;;;20.80;39.20;;;;;;4739215;30;20118;-77
2021/01/17 12:21:59;;;;;;;0.32;0.32;;;20.80;39.10;;;;;;4730834;30;20528;-77
2021/01/17 12:24:24;;;;;;;0.65;0.63;;;20.80;38.90;;;;;;4731509;30;20036;-76
2021/01/17 12:26:51;;;;;;;0.10;0.10;;;20.80;39.00;;;;;;4726398;30;20045;-75
2021/01/17 12:29:16;;;;;;;0.30;0.30;;;20.80;38.90;;;;;;4717133;30;20510;-77
2021/01/17 12:31:42;;;;;;;0.90;0.05;;;20.80;38.80;;;;;;4730924;30;20041;-77
2021/01/17 12:34:26;;;;;;;0.13;0.13;;;20.80;38.80;;;;;;4730054;30;20457;-78
2021/01/17 12:36:52;;;;;;;0.20;0.20;;;20.80;38.70;;;;;;4741971;30;20070;-73
2021/01/17 12:39:18;;;;;;;0.47;0.47;;;20.80;38.70;;;;;;4742006;30;20441;-73
2021/01/17 12:41:45;;;;;;;0.30;0.30;;;20.80;38.60;;;;;;4733565;30;20044;-78
2021/01/17 12:44:25;;;;;;;0.08;0.08;;;20.80;38.60;;;;;;4726276;30;20078;-78
2021/01/17 12:46:51;;;;;;;0.32;0.20;;;20.70;38.50;;;;;;4796305;29;20035;-79
2021/01/17 12:49:29;;;;;;;0.65;0.63;;;20.70;38.50;;;;;;4826836;29;20030;-77
2021/01/17 12:51:54;;;;;;;0.85;0.40;;;20.70;39.10;;;;;;4817111;29;20110;-77
2021/01/17 12:54:20;;;;;;;0.17;0.17;;;20.70;38.40;;;;;;4830352;29;20487;-78
2021/01/17 12:56:45;;;;;;;0.10;0.10;;;20.70;38.40;;;;;;4838219;29;20065;-77
2021/01/17 12:59:11;;;;;;;0.22;0.15;;;20.60;38.40;;;;;;4823731;29;20039;-75
2021/01/17 13:01:37;;;;;;;0.00;0.00;;;20.70;38.30;;;;;;4823000;29;20031;-76
2021/01/17 13:04:02;;;;;;;0.00;0.00;;;20.70;38.30;;;;;;4821788;29;20030;-77
2021/01/17 13:06:28;;;;;;;0.10;0.10;;;20.70;38.30;;;;;;4799041;29;20121;-76